sensor_id;sensor_type;location;lat;lon;timestamp;temperature;humidity
11136;DHT22;5622;50.840;4.948;2024-02-23T06:10:45;6.50;99.90
11136;DHT22;5622;50.840;4.948;2024-02-23T06:30:11;6.50;99.90
11136;DHT22;5622;50.840;4.948;2024-02-23T06:32:38;6.50;99.90
11136;DHT22;5622;50.840;4.948;2024-02-23T06:35:06;6.50;99.90
11136;DHT22;5622;50.840;4.948;2024-02-23T11:32:43;8.60;99.90
11136;DHT22;5622;50.840;4.948;2024-02-23T11:35:12;8.70;99.90
11136;DHT22;5622;50.840;4.948;2024-02-23T11:37:47;8.60;99.90
11136;DHT22;5622;50.840;4.948;2024-02-23T11:40:14;8.70;99.90
11136;DHT22;5622;50.840;4.948;2024-02-23T11:42:51;8.70;99.90
11136;DHT22;5622;50.840;4.948;2024-02-23T11:45:19;8.70;99.90
11136;DHT22;5622;50.840;4.948;2024-02-23T11:47:57;8.70;99.90
11136;DHT22;5622;50.840;4.948;2024-02-23T11:50:24;8.80;99.90
11136;DHT22;5622;50.840;4.948;2024-02-23T11:52:53;8.80;99.90
11136;DHT22;5622;50.840;4.948;2024-02-23T11:55:21;8.70;99.90
11136;DHT22;5622;50.840;4.948;2024-02-23T11:57:49;8.80;99.90
11136;DHT22;5622;50.840;4.948;2024-02-23T12:00:17;8.90;99.90
11136;DHT22;5622;50.840;4.948;2024-02-23T12:02:44;8.90;99.90
11136;DHT22;5622;50.840;4.948;2024-02-23T12:05:13;8.90;99.90
11136;DHT22;5622;50.840;4.948;2024-02-23T12:07:40;9.00;99.90
11136;DHT22;5622;50.840;4.948;2024-02-23T12:10:08;8.80;99.90
11136;DHT22;5622;50.840;4.948;2024-02-23T12:12:36;9.00;99.90
11136;DHT22;5622;50.840;4.948;2024-02-23T12:15:04;9.10;99.90
11136;DHT22;5622;50.840;4.948;2024-02-23T12:17:35;9.00;99.90
11136;DHT22;5622;50.840;4.948;2024-02-23T12:20:03;9.10;99.90
11136;DHT22;5622;50.840;4.948;2024-02-23T12:22:32;9.00;99.90
11136;DHT22;5622;50.840;4.948;2024-02-23T12:25:00;9.00;99.90
11136;DHT22;5622;50.840;4.948;2024-02-23T12:27:30;9.00;99.90
11136;DHT22;5622;50.840;4.948;2024-02-23T12:29:57;9.00;99.90
11136;DHT22;5622;50.840;4.948;2024-02-23T12:32:26;8.90;99.90
11136;DHT22;5622;50.840;4.948;2024-02-23T12:34:53;9.00;99.90
11136;DHT22;5622;50.840;4.948;2024-02-23T12:37:21;9.10;99.90
11136;DHT22;5622;50.840;4.948;2024-02-23T12:39:50;9.00;99.90
11136;DHT22;5622;50.840;4.948;2024-02-23T12:42:18;9.00;99.90
11136;DHT22;5622;50.840;4.948;2024-02-23T12:44:45;9.00;99.90
11136;DHT22;5622;50.840;4.948;2024-02-23T12:47:13;9.10;99.90
11136;DHT22;5622;50.840;4.948;2024-02-23T12:49:40;9.00;99.90
11136;DHT22;5622;50.840;4.948;2024-02-23T12:52:07;9.00;99.90
11136;DHT22;5622;50.840;4.948;2024-02-23T12:54:36;9.00;99.90
11136;DHT22;5622;50.840;4.948;2024-02-23T12:57:04;9.00;99.90
11136;DHT22;5622;50.840;4.948;2024-02-23T12:59:31;9.00;99.90
11136;DHT22;5622;50.840;4.948;2024-02-23T13:01:58;8.90;99.90
11136;DHT22;5622;50.840;4.948;2024-02-23T13:04:25;9.00;99.90
11136;DHT22;5622;50.840;4.948;2024-02-23T13:06:52;9.00;99.90
11136;DHT22;5622;50.840;4.948;2024-02-23T13:09:20;8.90;99.90
11136;DHT22;5622;50.840;4.948;2024-02-23T13:11:47;8.90;99.90
11136;DHT22;5622;50.840;4.948;2024-02-23T13:14:15;8.90;99.90
11136;DHT22;5622;50.840;4.948;2024-02-23T13:16:42;8.80;99.90
11136;DHT22;5622;50.840;4.948;2024-02-23T13:19:09;8.90;99.90
11136;DHT22;5622;50.840;4.948;2024-02-23T13:21:37;8.90;99.90
11136;DHT22;5622;50.840;4.948;2024-02-23T13:24:04;8.90;99.90
11136;DHT22;5622;50.840;4.948;2024-02-23T13:26:31;8.90;99.90
11136;DHT22;5622;50.840;4.948;2024-02-23T13:28:59;8.90;99.90
11136;DHT22;5622;50.840;4.948;2024-02-23T13:31:27;8.90;99.90
11136;DHT22;5622;50.840;4.948;2024-02-23T13:33:54;9.00;99.90
11136;DHT22;5622;50.840;4.948;2024-02-23T13:36:21;9.00;99.90
11136;DHT22;5622;50.840;4.948;2024-02-23T13:38:48;9.00;99.90
11136;DHT22;5622;50.840;4.948;2024-02-23T13:41:16;9.10;99.90
11136;DHT22;5622;50.840;4.948;2024-02-23T13:43:44;9.20;99.90
11136;DHT22;5622;50.840;4.948;2024-02-23T13:46:11;9.10;99.90
11136;DHT22;5622;50.840;4.948;2024-02-23T13:48:39;9.20;99.90
11136;DHT22;5622;50.840;4.948;2024-02-23T13:51:06;9.10;99.90
11136;DHT22;5622;50.840;4.948;2024-02-23T13:53:33;9.10;99.90
11136;DHT22;5622;50.840;4.948;2024-02-23T13:56:03;9.00;99.90
11136;DHT22;5622;50.840;4.948;2024-02-23T13:58:30;8.00;99.90
11136;DHT22;5622;50.840;4.948;2024-02-23T14:01:00;8.90;99.90
11136;DHT22;5622;50.840;4.948;2024-02-23T14:03:27;9.00;99.90
11136;DHT22;5622;50.840;4.948;2024-02-23T14:05:56;9.00;99.90
11136;DHT22;5622;50.840;4.948;2024-02-23T14:08:24;9.00;99.90
11136;DHT22;5622;50.840;4.948;2024-02-23T14:10:51;8.90;99.90
11136;DHT22;5622;50.840;4.948;2024-02-23T14:13:18;8.90;99.90
11136;DHT22;5622;50.840;4.948;2024-02-23T14:15:45;8.90;99.90
11136;DHT22;5622;50.840;4.948;2024-02-23T14:18:12;8.90;99.90
11136;DHT22;5622;50.840;4.948;2024-02-23T14:20:39;8.90;99.90
11136;DHT22;5622;50.840;4.948;2024-02-23T14:23:08;8.90;99.90
11136;DHT22;5622;50.840;4.948;2024-02-23T14:25:35;8.90;99.90
11136;DHT22;5622;50.840;4.948;2024-02-23T14:28:02;8.90;99.90
11136;DHT22;5622;50.840;4.948;2024-02-23T14:30:29;8.80;99.90
11136;DHT22;5622;50.840;4.948;2024-02-23T14:32:56;8.90;99.90
11136;DHT22;5622;50.840;4.948;2024-02-23T14:35:23;8.90;99.90
11136;DHT22;5622;50.840;4.948;2024-02-23T14:37:50;8.90;99.90
11136;DHT22;5622;50.840;4.948;2024-02-23T14:40:19;8.80;99.90
11136;DHT22;5622;50.840;4.948;2024-02-23T14:42:46;8.90;99.90
11136;DHT22;5622;50.840;4.948;2024-02-23T14:45:13;9.00;99.90
11136;DHT22;5622;50.840;4.948;2024-02-23T14:47:42;9.10;99.90
11136;DHT22;5622;50.840;4.948;2024-02-23T14:50:10;9.10;99.90
11136;DHT22;5622;50.840;4.948;2024-02-23T14:52:37;9.20;99.90
11136;DHT22;5622;50.840;4.948;2024-02-23T14:55:05;9.20;99.90
11136;DHT22;5622;50.840;4.948;2024-02-23T14:57:33;9.20;99.90
11136;DHT22;5622;50.840;4.948;2024-02-23T15:00:00;9.20;99.90
11136;DHT22;5622;50.840;4.948;2024-02-23T15:02:28;9.20;99.90
11136;DHT22;5622;50.840;4.948;2024-02-23T15:04:55;9.20;99.90
11136;DHT22;5622;50.840;4.948;2024-02-23T15:07:23;9.20;99.90
11136;DHT22;5622;50.840;4.948;2024-02-23T15:09:50;9.20;99.90
11136;DHT22;5622;50.840;4.948;2024-02-23T15:12:17;9.20;99.90
11136;DHT22;5622;50.840;4.948;2024-02-23T15:14:45;9.20;99.90
11136;DHT22;5622;50.840;4.948;2024-02-23T15:17:12;9.20;99.90
11136;DHT22;5622;50.840;4.948;2024-02-23T15:19:39;9.20;99.90
11136;DHT22;5622;50.840;4.948;2024-02-23T15:22:07;9.10;99.90
11136;DHT22;5622;50.840;4.948;2024-02-23T15:24:39;9.10;99.90
11136;DHT22;5622;50.840;4.948;2024-02-23T15:27:07;9.00;99.90
11136;DHT22;5622;50.840;4.948;2024-02-23T15:29:35;9.00;99.90
11136;DHT22;5622;50.840;4.948;2024-02-23T15:32:04;8.90;99.90
11136;DHT22;5622;50.840;4.948;2024-02-23T15:34:31;8.90;99.90
11136;DHT22;5622;50.840;4.948;2024-02-23T15:36:58;8.90;99.90
11136;DHT22;5622;50.840;4.948;2024-02-23T15:39:25;8.90;99.90
11136;DHT22;5622;50.840;4.948;2024-02-23T15:41:52;9.00;99.90
11136;DHT22;5622;50.840;4.948;2024-02-23T15:44:19;9.00;99.90
11136;DHT22;5622;50.840;4.948;2024-02-23T15:46:47;9.00;99.90
11136;DHT22;5622;50.840;4.948;2024-02-23T15:49:15;9.00;99.90
11136;DHT22;5622;50.840;4.948;2024-02-23T15:51:43;9.00;99.90
11136;DHT22;5622;50.840;4.948;2024-02-23T15:54:10;9.00;99.90
11136;DHT22;5622;50.840;4.948;2024-02-23T15:56:38;9.00;99.90
11136;DHT22;5622;50.840;4.948;2024-02-23T15:59:05;9.00;99.90
11136;DHT22;5622;50.840;4.948;2024-02-23T16:01:33;9.00;99.90
11136;DHT22;5622;50.840;4.948;2024-02-23T16:04:00;9.00;99.90
11136;DHT22;5622;50.840;4.948;2024-02-23T16:06:29;9.00;99.90
11136;DHT22;5622;50.840;4.948;2024-02-23T16:08:59;9.00;99.90
11136;DHT22;5622;50.840;4.948;2024-02-23T16:11:26;9.00;99.90
11136;DHT22;5622;50.840;4.948;2024-02-23T16:13:54;9.00;99.90
11136;DHT22;5622;50.840;4.948;2024-02-23T16:16:21;9.00;99.90
11136;DHT22;5622;50.840;4.948;2024-02-23T16:18:48;8.90;99.90
11136;DHT22;5622;50.840;4.948;2024-02-23T16:21:15;8.90;99.90
11136;DHT22;5622;50.840;4.948;2024-02-23T16:23:44;8.80;99.90
11136;DHT22;5622;50.840;4.948;2024-02-23T16:26:11;8.70;99.90
11136;DHT22;5622;50.840;4.948;2024-02-23T16:28:38;8.70;99.90
11136;DHT22;5622;50.840;4.948;2024-02-23T16:31:05;8.60;99.90
11136;DHT22;5622;50.840;4.948;2024-02-23T16:33:32;8.60;99.90
11136;DHT22;5622;50.840;4.948;2024-02-23T16:35:59;8.50;99.90
11136;DHT22;5622;50.840;4.948;2024-02-23T16:38:26;8.50;99.90
11136;DHT22;5622;50.840;4.948;2024-02-23T16:40:55;8.50;99.90
11136;DHT22;5622;50.840;4.948;2024-02-23T16:43:22;8.40;99.90
11136;DHT22;5622;50.840;4.948;2024-02-23T16:45:49;8.40;99.90
11136;DHT22;5622;50.840;4.948;2024-02-23T16:48:16;8.40;99.90
11136;DHT22;5622;50.840;4.948;2024-02-23T16:50:43;8.40;99.90
11136;DHT22;5622;50.840;4.948;2024-02-23T16:53:11;8.10;99.90
11136;DHT22;5622;50.840;4.948;2024-02-23T16:55:38;8.40;99.90
11136;DHT22;5622;50.840;4.948;2024-02-23T16:58:07;8.40;99.90
11136;DHT22;5622;50.840;4.948;2024-02-23T17:00:34;8.40;99.90
11136;DHT22;5622;50.840;4.948;2024-02-23T17:03:01;8.40;99.90
11136;DHT22;5622;50.840;4.948;2024-02-23T17:05:28;8.40;99.90
11136;DHT22;5622;50.840;4.948;2024-02-23T17:07:57;8.30;99.90
11136;DHT22;5622;50.840;4.948;2024-02-23T17:10:24;8.30;99.90
11136;DHT22;5622;50.840;4.948;2024-02-23T17:12:52;8.30;99.90
11136;DHT22;5622;50.840;4.948;2024-02-23T17:15:22;8.20;99.90
11136;DHT22;5622;50.840;4.948;2024-02-23T17:17:49;8.20;99.90
11136;DHT22;5622;50.840;4.948;2024-02-23T17:20:16;8.10;99.90
11136;DHT22;5622;50.840;4.948;2024-02-23T17:22:44;8.00;99.90
11136;DHT22;5622;50.840;4.948;2024-02-23T17:25:11;8.00;99.90
11136;DHT22;5622;50.840;4.948;2024-02-23T17:27:39;8.00;99.90
11136;DHT22;5622;50.840;4.948;2024-02-23T17:30:07;7.90;99.90
11136;DHT22;5622;50.840;4.948;2024-02-23T17:32:35;7.90;99.90
11136;DHT22;5622;50.840;4.948;2024-02-23T17:35:02;7.80;99.90
11136;DHT22;5622;50.840;4.948;2024-02-23T17:37:32;7.80;99.90
11136;DHT22;5622;50.840;4.948;2024-02-23T17:39:59;7.70;99.90
11136;DHT22;5622;50.840;4.948;2024-02-23T17:42:26;7.70;99.90
11136;DHT22;5622;50.840;4.948;2024-02-23T17:44:53;7.60;99.90
11136;DHT22;5622;50.840;4.948;2024-02-23T17:47:20;7.60;99.90
11136;DHT22;5622;50.840;4.948;2024-02-23T17:49:49;7.60;99.90
11136;DHT22;5622;50.840;4.948;2024-02-23T17:52:16;7.50;99.90
11136;DHT22;5622;50.840;4.948;2024-02-23T17:54:43;7.50;99.90
11136;DHT22;5622;50.840;4.948;2024-02-23T17:57:10;7.40;99.90
11136;DHT22;5622;50.840;4.948;2024-02-23T17:59:37;7.40;99.90
11136;DHT22;5622;50.840;4.948;2024-02-23T18:02:04;7.30;99.90
11136;DHT22;5622;50.840;4.948;2024-02-23T18:04:32;7.30;99.90
11136;DHT22;5622;50.840;4.948;2024-02-23T18:07:00;7.40;99.90
11136;DHT22;5622;50.840;4.948;2024-02-23T18:09:27;7.30;99.90
11136;DHT22;5622;50.840;4.948;2024-02-23T18:11:54;7.40;99.90
11136;DHT22;5622;50.840;4.948;2024-02-23T18:14:21;7.40;99.90
11136;DHT22;5622;50.840;4.948;2024-02-23T18:16:48;7.40;99.90
11136;DHT22;5622;50.840;4.948;2024-02-23T18:19:16;7.30;99.90
11136;DHT22;5622;50.840;4.948;2024-02-23T18:21:44;7.40;99.90
11136;DHT22;5622;50.840;4.948;2024-02-23T18:24:13;7.40;99.90
11136;DHT22;5622;50.840;4.948;2024-02-23T18:26:40;7.40;99.90
11136;DHT22;5622;50.840;4.948;2024-02-23T18:29:07;7.40;99.90
11136;DHT22;5622;50.840;4.948;2024-02-23T18:31:34;7.40;99.90
11136;DHT22;5622;50.840;4.948;2024-02-23T18:34:01;7.40;99.90
11136;DHT22;5622;50.840;4.948;2024-02-23T18:36:28;7.40;99.90
11136;DHT22;5622;50.840;4.948;2024-02-23T18:38:55;7.40;99.90
11136;DHT22;5622;50.840;4.948;2024-02-23T18:44:52;7.40;99.90
11136;DHT22;5622;50.840;4.948;2024-02-23T19:11:24;7.40;99.90
11136;DHT22;5622;50.840;4.948;2024-02-23T19:50:21;7.00;99.90
11136;DHT22;5622;50.840;4.948;2024-02-23T19:52:48;7.00;99.90
11136;DHT22;5622;50.840;4.948;2024-02-23T19:55:15;7.00;99.90
11136;DHT22;5622;50.840;4.948;2024-02-23T19:57:42;7.00;99.90
11136;DHT22;5622;50.840;4.948;2024-02-23T20:00:09;7.10;99.90
11136;DHT22;5622;50.840;4.948;2024-02-23T22:15:53;6.00;99.90
11136;DHT22;5622;50.840;4.948;2024-02-23T22:18:20;6.00;99.90
11136;DHT22;5622;50.840;4.948;2024-02-23T22:20:47;6.00;99.90
